Time;durP1;ratioP1;P1;durP2;ratioP2;P2;SDS_P1;SDS_P2;PMS_P1;PMS_P2;Temp;Humidity;BMP_temperature;BMP_pressure;BME280_temperature;BME280_humidity;BME280_pressure;Samples;Min_cycle;Max_cycle;Signal;HPM_P1;HPM_P2
2022/09/13 00:01:07;;;;;;;0.22;0.22;;;22.80;73.30;;;;;;4174633;28;20048;-70
2022/09/13 00:03:48;;;;;;;0.00;0.00;;;22.80;73.40;;;;;;4140380;28;20180;-70
2022/09/13 00:06:29;;;;;;;0.20;0.20;;;22.80;73.40;;;;;;4158059;28;20065;-69
2022/09/13 00:09:11;;;;;;;0.00;0.00;;;22.80;73.40;;;;;;4154033;28;20723;-70
2022/09/13 00:11:53;;;;;;;0.10;0.10;;;22.80;73.30;;;;;;4158441;28;20063;-70
2022/09/13 00:14:36;;;;;;;0.10;0.10;;;22.80;73.50;;;;;;4148200;28;20242;-70
2022/09/13 00:17:19;;;;;;;0.00;0.00;;;22.80;73.60;;;;;;4150548;28;20459;-70
2022/09/13 00:20:00;;;;;;;0.38;0.38;;;22.80;73.70;;;;;;4161211;28;20094;-71
2022/09/13 00:22:41;;;;;;;0.05;0.05;;;22.80;73.80;;;;;;4159045;28;20119;-71
2022/09/13 00:25:22;;;;;;;0.75;0.75;;;22.80;73.90;;;;;;4163726;28;20536;-70
2022/09/13 00:28:03;;;;;;;0.63;0.63;;;22.80;74.00;;;;;;4177177;28;20106;-70
2022/09/13 00:30:43;;;;;;;;;;;22.80;74.00;;;;;;4177696;28;20301;-70
2022/09/13 00:33:25;;;;;;;0.22;0.22;;;22.80;74.10;;;;;;4176206;28;19931;-71
2022/09/13 00:36:08;;;;;;;0.00;0.00;;;22.70;74.30;;;;;;4162046;28;20127;-71
2022/09/13 00:38:49;;;;;;;1.10;1.10;;;22.80;74.50;;;;;;4175513;28;20060;-70
2022/09/13 00:41:30;;;;;;;0.00;0.00;;;22.70;74.40;;;;;;4175312;28;20420;-71
2022/09/13 00:44:52;;;;;;;3.50;0.63;;;22.70;74.50;;;;;;4161943;28;20180;-70
2022/09/13 00:47:39;;;;;;;0.10;0.10;;;22.70;74.50;;;;;;4174326;28;20201;-70
2022/09/13 00:50:28;;;;;;;0.40;0.40;;;22.70;74.70;;;;;;4160462;28;20048;-71
2022/09/13 00:53:12;;;;;;;0.10;0.10;;;22.70;74.70;;;;;;4161484;28;20056;-70
2022/09/13 00:55:57;;;;;;;0.57;0.57;;;22.70;74.80;;;;;;4175209;28;20098;-70
2022/09/13 00:58:42;;;;;;;0.10;0.10;;;22.70;74.80;;;;;;4177167;28;20044;-70
2022/09/13 01:01:28;;;;;;;0.08;0.08;;;22.70;74.90;;;;;;4176978;28;20533;-71
2022/09/13 01:04:09;;;;;;;1.80;0.75;;;22.70;74.90;;;;;;4175152;28;20187;-72
2022/09/13 01:06:56;;;;;;;0.00;0.00;;;22.70;74.70;;;;;;4176604;28;20075;-71
2022/09/13 01:09:40;;;;;;;0.00;0.00;;;22.70;75.00;;;;;;4176679;28;20058;-71
2022/09/13 01:12:33;;;;;;;0.43;0.43;;;22.70;75.00;;;;;;4174737;28;20056;-71
2022/09/13 01:15:14;;;;;;;0.10;0.10;;;22.70;75.00;;;;;;4159945;28;20099;-70
2022/09/13 01:17:55;;;;;;;0.00;0.00;;;22.70;75.00;;;;;;4176603;28;20138;-71
2022/09/13 01:20:54;;;;;;;0.10;0.10;;;22.70;75.00;;;;;;4176757;28;20129;-71
2022/09/13 01:24:09;;;;;;;0.15;0.15;;;22.70;75.00;;;;;;4143466;28;20052;-71
2022/09/13 01:27:14;;;;;;;0.57;0.57;;;22.70;75.00;;;;;;4142950;28;20053;-71
2022/09/13 01:30:20;;;;;;;0.80;0.80;;;22.70;75.00;;;;;;4159447;28;20150;-71
2022/09/13 01:33:12;;;;;;;0.82;0.82;;;22.70;75.00;;;;;;4159212;28;20068;-65
2022/09/13 01:36:20;;;;;;;0.00;0.00;;;22.70;75.00;;;;;;4161884;28;20118;-65
2022/09/13 01:39:05;;;;;;;0.43;0.43;;;22.70;75.00;;;;;;4159684;28;20218;-64
2022/09/13 01:42:05;;;;;;;0.00;0.00;;;22.70;75.10;;;;;;4175782;28;20080;-65
2022/09/13 01:45:02;;;;;;;0.32;0.32;;;22.70;75.20;;;;;;4159262;28;20068;-64
2022/09/13 01:47:52;;;;;;;0.43;0.43;;;22.70;75.20;;;;;;4175783;28;20063;-65
2022/09/13 01:50:40;;;;;;;0.10;0.10;;;22.70;75.20;;;;;;4175815;28;20091;-64
2022/09/13 01:53:32;;;;;;;0.28;0.28;;;22.70;75.20;;;;;;4176094;28;20109;-64
2022/09/13 01:56:22;;;;;;;0.25;0.25;;;22.70;75.20;;;;;;4175464;28;20052;-66
2022/09/13 01:59:07;;;;;;;0.00;0.00;;;22.70;75.20;;;;;;4160856;28;20356;-64
2022/09/13 02:01:55;;;;;;;0.20;0.20;;;22.60;75.10;;;;;;4173939;28;20067;-64
2022/09/13 02:04:41;;;;;;;0.08;0.08;;;22.60;75.20;;;;;;4175791;28;20630;-63
2022/09/13 02:07:26;;;;;;;1.45;0.95;;;22.60;75.10;;;;;;4175854;28;20055;-63
2022/09/13 02:10:11;;;;;;;0.03;0.03;;;22.60;75.10;;;;;;4175669;28;20058;-64
2022/09/13 02:12:55;;;;;;;0.43;0.43;;;22.60;75.30;;;;;;4151020;28;20137;-63
2022/09/13 02:15:40;;;;;;;0.30;0.30;;;22.60;75.30;;;;;;4142760;28;20052;-64
2022/09/13 02:18:26;;;;;;;0.75;0.75;;;22.60;76.20;;;;;;4143148;28;20845;-64
2022/09/13 02:21:12;;;;;;;0.98;0.90;;;22.60;75.40;;;;;;4152665;28;20051;-63
2022/09/13 02:24:00;;;;;;;0.90;0.90;;;22.60;75.30;;;;;;4158819;28;20068;-64
2022/09/13 02:26:45;;;;;;;0.00;0.00;;;22.60;75.50;;;;;;4173005;28;20055;-63
2022/09/13 02:29:28;;;;;;;0.65;0.65;;;22.60;75.40;;;;;;4175492;28;20052;-63
2022/09/13 02:32:14;;;;;;;0.17;0.17;;;22.60;75.40;;;;;;4142523;28;20056;-69
2022/09/13 02:35:01;;;;;;;0.00;0.00;;;22.60;75.40;;;;;;4158889;28;20099;-64
2022/09/13 02:37:48;;;;;;;0.00;0.00;;;22.60;75.40;;;;;;4158990;28;20064;-62
2022/09/13 02:40:35;;;;;;;0.00;0.00;;;22.60;75.60;;;;;;4165641;28;20060;-63
2022/09/13 02:43:20;;;;;;;0.38;0.38;;;22.60;75.60;;;;;;4175256;28;20187;-63
2022/09/13 02:46:15;;;;;;;0.10;0.10;;;22.60;75.60;;;;;;4175219;28;20056;-63
2022/09/13 02:49:02;;;;;;;0.00;0.00;;;22.60;75.60;;;;;;4174915;28;20043;-63
2022/09/13 02:51:52;;;;;;;0.00;0.00;;;22.60;76.60;;;;;;4175118;28;20134;-63
2022/09/13 02:54:42;;;;;;;1.45;1.35;;;22.60;75.70;;;;;;4175255;28;20525;-64
2022/09/13 02:57:30;;;;;;;0.70;0.70;;;22.60;75.70;;;;;;4175227;28;20101;-64
2022/09/13 03:00:12;;;;;;;0.00;0.00;;;22.60;75.80;;;;;;4158730;28;20048;-64
2022/09/13 03:02:54;;;;;;;0.75;0.75;;;22.60;75.80;;;;;;4158846;28;20064;-64
2022/09/13 03:05:36;;;;;;;0.00;0.00;;;22.60;75.90;;;;;;4158210;28;20380;-64
2022/09/13 03:08:18;;;;;;;0.08;0.08;;;22.60;75.90;;;;;;4160550;28;20060;-65
2022/09/13 03:11:11;;;;;;;0.15;0.15;;;22.60;75.90;;;;;;4173466;28;20749;-63
2022/09/13 03:14:07;;;;;;;1.35;0.93;;;22.60;76.00;;;;;;4174170;28;20202;-70
2022/09/13 03:17:07;;;;;;;0.15;0.15;;;22.60;76.00;;;;;;4174923;28;20189;-70
2022/09/13 03:20:05;;;;;;;0.00;0.00;;;22.60;75.90;;;;;;4174802;28;20063;-70
2022/09/13 03:23:00;;;;;;;0.20;0.20;;;22.60;76.00;;;;;;4174777;28;20071;-70
2022/09/13 03:26:12;;;;;;;0.00;0.00;;;22.50;75.90;;;;;;4161951;28;20212;-70
2022/09/13 03:29:06;;;;;;;0.00;0.00;;;22.60;76.00;;;;;;4172915;28;20122;-71
2022/09/13 03:31:56;;;;;;;0.35;0.35;;;22.50;76.00;;;;;;4174373;28;20170;-70
2022/09/13 03:34:44;;;;;;;0.00;0.00;;;22.50;76.10;;;;;;4174957;28;20052;-69
2022/09/13 03:37:31;;;;;;;0.00;0.00;;;22.50;76.00;;;;;;4174635;28;20226;-68
2022/09/13 03:40:16;;;;;;;0.00;0.00;;;22.50;76.10;;;;;;4157000;28;20052;-64
2022/09/13 03:43:05;;;;;;;0.03;0.03;;;22.50;76.20;;;;;;4174911;28;20138;-64
2022/09/13 03:45:51;;;;;;;0.00;0.00;;;22.50;76.30;;;;;;4173352;28;20052;-64
2022/09/13 03:48:35;;;;;;;0.20;0.20;;;22.50;76.40;;;;;;4158351;28;20126;-64
2022/09/13 03:51:16;;;;;;;0.00;0.00;;;22.50;76.30;;;;;;4144833;28;20049;-65
2022/09/13 03:54:02;;;;;;;0.00;0.00;;;22.50;76.40;;;;;;4145141;28;20056;-64
2022/09/13 03:56:42;;;;;;;0.32;0.32;;;22.50;76.30;;;;;;4160401;28;20076;-64
2022/09/13 03:59:23;;;;;;;0.00;0.00;;;22.50;76.40;;;;;;4161434;28;20067;-64
2022/09/13 04:02:06;;;;;;;0.30;0.30;;;22.50;76.50;;;;;;4159867;28;20295;-64
2022/09/13 04:04:48;;;;;;;0.00;0.00;;;22.50;76.50;;;;;;4161004;28;20416;-64
2022/09/13 04:07:28;;;;;;;0.00;0.00;;;22.50;76.40;;;;;;4162308;28;20060;-64
2022/09/13 04:10:10;;;;;;;0.00;0.00;;;22.50;76.50;;;;;;4161249;28;20099;-64
2022/09/13 04:12:54;;;;;;;0.28;0.28;;;22.50;76.50;;;;;;4161032;28;20052;-64
2022/09/13 04:15:35;;;;;;;0.10;0.10;;;22.50;76.60;;;;;;4176159;28;20116;-64
2022/09/13 04:18:18;;;;;;;0.00;0.00;;;22.50;76.70;;;;;;4177252;28;20499;-65
2022/09/13 04:21:00;;;;;;;0.40;0.40;;;22.50;76.70;;;;;;4177371;28;20190;-64
2022/09/13 04:23:40;;;;;;;2.22;1.45;;;22.50;76.80;;;;;;4159995;28;20824;-65
2022/09/13 04:26:21;;;;;;;0.00;0.00;;;22.50;76.90;;;;;;4160619;28;20236;-65
2022/09/13 04:29:02;;;;;;;0.10;0.10;;;22.50;76.90;;;;;;4160591;28;20072;-65
2022/09/13 04:31:43;;;;;;;0.00;0.00;;;22.50;77.00;;;;;;4161277;28;20571;-64
2022/09/13 04:34:25;;;;;;;0.00;0.00;;;22.50;77.00;;;;;;4160931;28;20487;-64
2022/09/13 04:37:06;;;;;;;0.03;0.03;;;22.50;77.10;;;;;;4177376;28;20048;-64
2022/09/13 04:39:47;;;;;;;0.00;0.00;;;22.40;77.50;;;;;;4162339;28;20144;-65
2022/09/13 04:42:28;;;;;;;0.85;0.85;;;22.40;77.00;;;;;;4160307;28;20048;-64
2022/09/13 04:45:10;;;;;;;0.50;0.50;;;22.50;78.00;;;;;;4162153;28;20100;-64
2022/09/13 04:47:52;;;;;;;0.00;0.00;;;22.40;77.20;;;;;;4159833;28;20142;-64
2022/09/13 04:50:34;;;;;;;0.00;0.00;;;22.50;77.20;;;;;;4160858;28;20048;-64
2022/09/13 04:53:15;;;;;;;0.00;0.00;;;22.40;77.20;;;;;;4160464;28;20048;-64
2022/09/13 04:56:01;;;;;;;0.00;0.00;;;22.40;77.20;;;;;;4171829;28;20943;-65
2022/09/13 04:58:42;;;;;;;0.00;0.00;;;22.40;77.30;;;;;;4176894;28;20052;-64
2022/09/13 05:01:23;;;;;;;0.20;0.20;;;22.40;78.20;;;;;;4160064;28;20451;-64
2022/09/13 05:04:09;;;;;;;0.32;0.32;;;22.40;77.30;;;;;;4161960;28;20115;-64
2022/09/13 05:06:51;;;;;;;0.00;0.00;;;22.40;77.40;;;;;;4176352;28;20511;-64
2022/09/13 05:09:32;;;;;;;0.00;0.00;;;22.40;77.40;;;;;;4175807;28;20198;-64
2022/09/13 05:12:13;;;;;;;0.00;0.00;;;22.40;77.50;;;;;;4175487;28;20187;-64
2022/09/13 05:14:54;;;;;;;0.00;0.00;;;22.40;77.40;;;;;;4160306;28;20132;-64
2022/09/13 05:17:34;;;;;;;0.00;0.00;;;22.40;77.50;;;;;;4175064;28;20060;-64
2022/09/13 05:20:17;;;;;;;0.30;0.30;;;22.40;77.50;;;;;;4169271;28;20044;-63
2022/09/13 05:22:59;;;;;;;0.00;0.00;;;22.40;77.50;;;;;;4159918;28;20056;-68
2022/09/13 05:25:40;;;;;;;0.30;0.08;;;22.40;78.00;;;;;;4164025;28;20376;-63
2022/09/13 05:28:21;;;;;;;0.13;0.13;;;22.40;78.10;;;;;;4176469;28;20071;-63
2022/09/13 05:31:18;;;;;;;0.00;0.00;;;22.40;78.00;;;;;;4175902;28;20403;-63
2022/09/13 05:34:03;;;;;;;0.00;0.00;;;22.40;77.80;;;;;;4159809;28;20057;-68
2022/09/13 05:36:45;;;;;;;0.75;0.75;;;22.40;77.70;;;;;;4159841;28;20072;-68
2022/09/13 05:39:30;;;;;;;0.00;0.00;;;22.40;78.50;;;;;;4161923;28;20437;-69
2022/09/13 05:42:28;;;;;;;0.00;0.00;;;22.40;77.70;;;;;;4175393;28;20106;-69
2022/09/13 05:45:09;;;;;;;0.00;0.00;;;22.40;77.70;;;;;;4176097;28;20182;-70
2022/09/13 05:47:51;;;;;;;0.08;0.08;;;22.40;77.70;;;;;;4175986;28;20079;-69
2022/09/13 05:50:36;;;;;;;0.00;0.00;;;22.40;77.70;;;;;;4165772;28;20052;-69
2022/09/13 05:53:38;;;;;;;0.15;0.15;;;22.40;77.70;;;;;;4158618;28;20067;-68
2022/09/13 05:56:22;;;;;;;0.43;0.35;;;22.40;77.80;;;;;;4157051;28;20064;-67
2022/09/13 05:59:03;;;;;;;0.00;0.00;;;22.40;77.80;;;;;;4159120;28;20135;-67
2022/09/13 06:01:44;;;;;;;0.00;0.00;;;22.40;77.80;;;;;;4172540;28;20052;-67
2022/09/13 06:04:25;;;;;;;0.00;0.00;;;22.40;78.00;;;;;;4162678;28;20502;-67
2022/09/13 06:07:06;;;;;;;0.15;0.15;;;22.30;77.80;;;;;;4147354;28;20079;-68
2022/09/13 06:09:47;;;;;;;0.00;0.00;;;22.30;77.80;;;;;;4173999;28;20336;-67
2022/09/13 06:12:30;;;;;;;;;;;22.30;78.00;;;;;;4170134;28;20060;-67
2022/09/13 06:15:11;;;;;;;0.00;0.00;;;22.30;77.90;;;;;;4158174;28;19935;-67
2022/09/13 06:17:52;;;;;;;1.77;1.45;;;22.30;78.00;;;;;;4159236;28;20057;-67
2022/09/13 06:20:32;;;;;;;0.00;0.00;;;22.30;78.90;;;;;;4159411;28;20515;-67
2022/09/13 06:23:14;;;;;;;0.00;0.00;;;22.30;78.10;;;;;;4159465;28;20061;-64
2022/09/13 06:26:03;;;;;;;0.82;0.82;;;22.30;78.20;;;;;;4158901;28;20065;-67
2022/09/13 06:28:48;;;;;;;0.80;0.80;;;22.30;78.60;;;;;;4173005;28;20384;-67
2022/09/13 06:31:29;;;;;;;0.70;0.70;;;22.30;78.60;;;;;;4173262;28;20052;-67
2022/09/13 06:34:10;;;;;;;;;;;22.40;78.50;;;;;;4160718;28;20175;-67
2022/09/13 06:36:51;;;;;;;0.00;0.00;;;22.30;78.30;;;;;;4175544;28;20389;-68
2022/09/13 06:39:33;;;;;;;0.00;0.00;;;22.30;78.20;;;;;;4175156;28;20057;-70
2022/09/13 06:42:13;;;;;;;0.00;0.00;;;22.30;78.30;;;;;;4175433;28;20055;-69
2022/09/13 06:44:56;;;;;;;0.03;0.03;;;22.30;78.30;;;;;;4175367;28;20143;-68
2022/09/13 06:47:36;;;;;;;0.00;0.00;;;22.30;78.30;;;;;;4173898;28;20144;-68
2022/09/13 06:50:17;;;;;;;0.00;0.00;;;22.30;78.50;;;;;;4175273;28;20196;-67
2022/09/13 06:52:58;;;;;;;0.00;0.00;;;22.30;78.40;;;;;;4175009;28;20496;-67
2022/09/13 06:55:39;;;;;;;0.00;0.00;;;22.30;78.40;;;;;;4174649;28;20051;-67
2022/09/13 06:58:20;;;;;;;0.00;0.00;;;22.30;78.40;;;;;;4174693;28;20044;-68
2022/09/13 07:01:11;;;;;;;0.00;0.00;;;22.30;78.30;;;;;;4167953;28;20045;-68
2022/09/13 07:03:54;;;;;;;0.00;0.00;;;22.30;79.20;;;;;;4159626;28;20056;-68
2022/09/13 07:06:36;;;;;;;0.00;0.00;;;22.30;78.30;;;;;;4173563;28;20456;-68
2022/09/13 07:09:20;;;;;;;0.00;0.00;;;22.40;78.40;;;;;;4173409;28;20047;-68
2022/09/13 07:12:01;;;;;;;0.00;0.00;;;22.40;78.40;;;;;;4173096;28;20403;-68
2022/09/13 07:14:42;;;;;;;0.30;0.30;;;22.40;78.40;;;;;;4174832;28;20052;-68
2022/09/13 07:17:25;;;;;;;0.00;0.00;;;22.40;78.30;;;;;;4174922;28;20044;-68
2022/09/13 07:20:10;;;;;;;0.00;0.00;;;22.40;78.30;;;;;;4173528;28;20051;-68
2022/09/13 07:22:51;;;;;;;0.00;0.00;;;22.40;78.40;;;;;;4174748;28;20126;-68
2022/09/13 07:25:32;;;;;;;0.25;0.25;;;22.40;78.10;;;;;;4160683;28;20102;-68
2022/09/13 07:28:13;;;;;;;0.00;0.00;;;22.50;78.10;;;;;;4177718;28;20056;-67
2022/09/13 07:30:54;;;;;;;0.00;0.00;;;22.50;78.00;;;;;;4175867;28;20318;-68
2022/09/13 07:33:36;;;;;;;0.00;0.00;;;22.50;77.90;;;;;;4175155;28;20052;-68
2022/09/13 07:36:17;;;;;;;0.00;0.00;;;22.50;77.80;;;;;;4176096;28;20044;-67
2022/09/13 07:38:59;;;;;;;0.00;0.00;;;22.50;77.80;;;;;;4181468;28;20162;-68
2022/09/13 07:41:41;;;;;;;0.10;0.10;;;22.50;77.60;;;;;;4150267;28;20475;-68
2022/09/13 07:44:22;;;;;;;0.00;0.00;;;22.60;77.50;;;;;;4176189;28;20052;-68
2022/09/13 07:47:03;;;;;;;;;;;22.50;77.30;;;;;;4178231;28;20125;-67
2022/09/13 07:49:45;;;;;;;0.00;0.00;;;22.50;77.20;;;;;;4177800;28;19932;-68
2022/09/13 07:52:29;;;;;;;5.68;1.95;;;22.50;77.30;;;;;;4176802;28;20052;-67
2022/09/13 07:55:10;;;;;;;0.00;0.00;;;22.60;77.10;;;;;;4162077;28;20060;-67
2022/09/13 07:57:50;;;;;;;0.00;0.00;;;22.60;76.90;;;;;;4177868;28;20072;-67
2022/09/13 08:00:31;;;;;;;0.00;0.00;;;22.60;76.70;;;;;;4177441;28;20476;-67
2022/09/13 08:03:12;;;;;;;0.00;0.00;;;22.60;76.70;;;;;;4170361;28;20549;-67
2022/09/13 08:05:55;;;;;;;0.00;0.00;;;22.70;76.60;;;;;;4160979;28;20471;-67
2022/09/13 08:08:37;;;;;;;0.00;0.00;;;22.70;76.20;;;;;;4160249;28;20052;-68
2022/09/13 08:11:21;;;;;;;0.00;0.00;;;22.80;75.90;;;;;;4145956;28;20083;-68
2022/09/13 08:14:03;;;;;;;0.00;0.00;;;22.80;75.80;;;;;;4144549;28;20061;-68
2022/09/13 08:16:44;;;;;;;0.00;0.00;;;22.80;75.60;;;;;;4144678;28;20418;-70
2022/09/13 08:19:25;;;;;;;0.00;0.00;;;22.90;75.30;;;;;;4146233;28;20056;-68
2022/09/13 08:22:07;;;;;;;0.28;0.28;;;22.90;75.40;;;;;;4177306;28;20047;-67
2022/09/13 08:24:48;;;;;;;0.70;0.70;;;23.00;75.20;;;;;;4177542;28;20055;-67
2022/09/13 08:27:29;;;;;;;0.00;0.00;;;23.00;74.20;;;;;;4160914;28;20534;-67
2022/09/13 08:30:11;;;;;;;0.00;0.00;;;22.90;73.70;;;;;;4160536;28;20373;-67
2022/09/13 08:32:52;;;;;;;0.00;0.00;;;22.90;73.20;;;;;;4161391;28;20080;-67
2022/09/13 08:35:34;;;;;;;0.00;0.00;;;22.90;73.20;;;;;;4186995;28;20044;-67
2022/09/13 08:38:16;;;;;;;0.00;0.00;;;23.00;73.30;;;;;;4176967;28;20056;-67
2022/09/13 08:40:59;;;;;;;0.00;0.00;;;23.00;74.60;;;;;;4160653;28;20048;-67
2022/09/13 08:43:46;;;;;;;0.00;0.00;;;23.00;73.80;;;;;;4160381;28;20052;-67
2022/09/13 08:46:32;;;;;;;0.00;0.00;;;23.00;73.40;;;;;;4160509;28;20041;-67
2022/09/13 08:49:18;;;;;;;0.00;0.00;;;23.10;72.70;;;;;;4165288;28;20052;-68
2022/09/13 08:52:02;;;;;;;0.00;0.00;;;23.10;71.90;;;;;;4176619;28;20055;-67
2022/09/13 08:54:44;;;;;;;23.48;1.85;;;23.10;72.20;;;;;;4177026;28;20060;-67
2022/09/13 08:57:32;;;;;;;0.00;0.00;;;23.10;71.60;;;;;;4176714;28;20502;-66
2022/09/13 09:00:21;;;;;;;0.00;0.00;;;23.20;72.20;;;;;;4161594;28;20052;-67
2022/09/13 09:03:19;;;;;;;0.00;0.00;;;23.20;71.80;;;;;;4175537;28;20149;-68
2022/09/13 09:06:00;;;;;;;0.00;0.00;;;23.20;71.60;;;;;;4176580;28;20585;-67
2022/09/13 09:08:46;;;;;;;0.00;0.00;;;23.20;71.40;;;;;;4176249;28;20056;-68
2022/09/13 09:11:35;;;;;;;0.00;0.00;;;23.20;71.40;;;;;;4161472;28;20122;-67
2022/09/13 09:14:22;;;;;;;0.00;0.00;;;23.20;71.00;;;;;;4160046;28;20160;-68
2022/09/13 09:17:07;;;;;;;0.00;0.00;;;23.20;70.60;;;;;;4174950;28;20095;-67
2022/09/13 09:19:52;;;;;;;0.00;0.00;;;23.20;70.60;;;;;;4174736;28;20055;-67
2022/09/13 09:22:35;;;;;;;0.00;0.00;;;23.10;70.70;;;;;;4175004;28;20087;-68
2022/09/13 09:25:16;;;;;;;0.15;0.15;;;23.20;70.60;;;;;;4174896;28;20182;-67
2022/09/13 09:27:59;;;;;;;;;;;23.20;71.00;;;;;;4160633;28;20052;-67
2022/09/13 09:30:49;;;;;;;0.00;0.00;;;23.10;70.70;;;;;;4155522;28;19928;-67
2022/09/13 09:33:55;;;;;;;0.25;0.25;;;23.20;70.70;;;;;;4176121;28;20040;-67
2022/09/13 09:36:42;;;;;;;0.00;0.00;;;23.20;70.10;;;;;;4169475;28;20065;-67
2022/09/13 09:39:32;;;;;;;0.00;0.00;;;23.20;70.40;;;;;;4175843;28;20060;-67
2022/09/13 09:42:16;;;;;;;0.00;0.00;;;23.30;70.40;;;;;;4175993;28;20171;-67
2022/09/13 09:45:01;;;;;;;0.00;0.00;;;23.30;70.30;;;;;;4176157;28;20391;-68
2022/09/13 09:47:47;;;;;;;0.00;0.00;;;23.20;68.60;;;;;;4175561;28;20404;-69
2022/09/13 09:50:33;;;;;;;0.03;0.03;;;23.30;69.30;;;;;;4146785;28;20048;-68
2022/09/13 09:53:19;;;;;;;0.85;0.85;;;23.20;69.20;;;;;;4159691;28;20057;-68
2022/09/13 09:56:03;;;;;;;0.00;0.00;;;23.30;69.10;;;;;;4159620;28;20399;-68
2022/09/13 09:58:46;;;;;;;0.00;0.00;;;23.20;69.10;;;;;;4159675;28;20099;-68
2022/09/13 10:01:31;;;;;;;0.00;0.00;;;23.30;69.10;;;;;;4159226;28;20503;-69
2022/09/13 10:04:21;;;;;;;0.00;0.00;;;23.30;69.00;;;;;;4159031;28;20048;-68
2022/09/13 10:07:18;;;;;;;0.00;0.00;;;23.30;68.60;;;;;;4159156;28;20182;-67
2022/09/13 10:10:04;;;;;;;0.00;0.00;;;23.30;68.50;;;;;;4159474;28;20059;-67
2022/09/13 10:12:50;;;;;;;0.00;0.00;;;23.30;68.40;;;;;;4174684;28;20079;-67
2022/09/13 10:15:33;;;;;;;0.00;0.00;;;23.30;68.40;;;;;;4173939;28;20064;-66
2022/09/13 10:18:17;;;;;;;0.10;0.10;;;23.30;67.90;;;;;;4158773;28;20103;-69
2022/09/13 10:21:24;;;;;;;0.00;0.00;;;23.30;68.20;;;;;;4159248;28;20052;-68
2022/09/13 10:24:18;;;;;;;0.00;0.00;;;23.40;67.80;;;;;;4159227;28;20658;-67
2022/09/13 10:27:00;;;;;;;0.00;0.00;;;23.40;67.60;;;;;;4156597;28;20454;-66
2022/09/13 10:29:48;;;;;;;0.00;0.00;;;23.40;67.70;;;;;;4170864;28;20068;-66
2022/09/13 10:32:30;;;;;;;0.20;0.20;;;23.40;67.70;;;;;;4166961;28;20067;-66
2022/09/13 10:35:19;;;;;;;0.08;0.08;;;23.40;67.70;;;;;;4170928;28;20077;-66
2022/09/13 10:38:00;;;;;;;0.00;0.00;;;23.50;67.50;;;;;;4173938;28;20502;-66
2022/09/13 10:40:47;;;;;;;0.00;0.00;;;23.40;67.50;;;;;;4144007;28;20057;-66
2022/09/13 10:43:30;;;;;;;0.00;0.00;;;23.50;67.50;;;;;;4142906;28;20156;-65
2022/09/13 10:46:21;;;;;;;0.00;0.00;;;23.50;67.40;;;;;;4143874;28;20131;-65
2022/09/13 10:49:02;;;;;;;0.00;0.00;;;23.50;67.10;;;;;;4142465;28;20149;-66
2022/09/13 10:51:45;;;;;;;0.00;0.00;;;23.50;66.70;;;;;;4165930;28;20507;-66
2022/09/13 10:54:26;;;;;;;0.20;0.20;;;23.50;65.80;;;;;;4143640;28;20053;-66
2022/09/13 10:57:37;;;;;;;0.00;0.00;;;23.50;65.90;;;;;;4151071;28;20056;-66
2022/09/13 11:00:20;;;;;;;0.00;0.00;;;23.50;66.10;;;;;;4143322;28;20160;-66
2022/09/13 11:03:19;;;;;;;0.00;0.00;;;23.60;65.80;;;;;;4173609;28;20048;-66
2022/09/13 11:06:04;;;;;;;0.00;0.00;;;23.60;65.70;;;;;;4173499;28;20475;-66
2022/09/13 11:08:56;;;;;;;0.45;0.45;;;23.60;65.80;;;;;;4154856;28;20060;-66
2022/09/13 11:11:47;;;;;;;28.40;1.27;;;23.60;65.80;;;;;;4160744;28;20052;-66
2022/09/13 11:14:48;;;;;;;0.00;0.00;;;23.60;66.50;;;;;;4174744;28;20064;-67
2022/09/13 11:17:48;;;;;;;0.05;0.05;;;23.70;65.20;;;;;;4161565;28;20055;-67
2022/09/13 11:20:40;;;;;;;0.00;0.00;;;23.70;65.10;;;;;;4174467;28;20625;-66
2022/09/13 11:26:35;;;;;;;0.00;0.00;;;23.80;63.00;;;;;;4191336;27;20517;-66
2022/09/13 11:29:36;;;;;;;0.00;0.00;;;23.80;63.60;;;;;;4188743;28;20483;-66
2022/09/13 11:32:29;;;;;;;0.00;0.00;;;23.80;62.90;;;;;;4188513;28;20626;-66
2022/09/13 11:35:36;;;;;;;0.10;0.10;;;23.80;62.90;;;;;;4190462;28;20066;-66
2022/09/13 11:38:32;;;;;;;3.75;1.08;;;23.80;62.50;;;;;;4172197;28;20044;-67
2022/09/13 11:41:27;;;;;;;0.08;0.08;;;23.80;62.60;;;;;;4170927;28;20056;-66
2022/09/13 11:44:44;;;;;;;0.17;0.15;;;23.90;63.00;;;;;;4193015;28;20146;-66
2022/09/13 11:47:41;;;;;;;0.00;0.00;;;23.90;63.90;;;;;;4192463;28;20055;-66
2022/09/13 11:50:34;;;;;;;0.20;0.20;;;23.90;61.70;;;;;;4188860;28;20491;-67
2022/09/13 11:53:51;;;;;;;0.10;0.10;;;23.90;62.00;;;;;;4196888;28;20066;-67
2022/09/13 11:56:36;;;;;;;1.10;1.08;;;23.90;62.70;;;;;;4205553;28;20051;-66
2022/09/13 11:59:28;;;;;;;1.23;1.13;;;23.90;62.40;;;;;;4205605;28;20063;-66
2022/09/13 12:02:21;;;;;;;0.00;0.00;;;24.00;62.20;;;;;;4197609;28;20055;-66
2022/09/13 12:05:06;;;;;;;0.00;0.00;;;24.00;62.20;;;;;;4189390;28;20060;-65
2022/09/13 12:08:10;;;;;;;10.18;0.40;;;24.00;62.60;;;;;;4172001;28;20183;-65
2022/09/13 12:10:55;;;;;;;0.00;0.00;;;24.00;62.60;;;;;;4172123;28;20049;-66
2022/09/13 12:13:41;;;;;;;0.00;0.00;;;24.00;63.00;;;;;;4172225;28;20064;-69
2022/09/13 12:16:28;;;;;;;4.45;1.40;;;24.00;62.70;;;;;;4195385;28;20047;-69
2022/09/13 12:19:19;;;;;;;0.00;0.00;;;24.00;62.90;;;;;;4204998;28;20186;-69
2022/09/13 12:22:02;;;;;;;0.00;0.00;;;24.10;63.10;;;;;;4198887;28;20073;-67
2022/09/13 12:24:47;;;;;;;0.90;0.63;;;24.10;61.20;;;;;;4187229;28;20511;-68
2022/09/13 12:27:37;;;;;;;0.00;0.00;;;24.10;62.10;;;;;;4188373;28;20517;-67
2022/09/13 12:30:22;;;;;;;0.00;0.00;;;24.10;62.30;;;;;;4188028;28;20110;-66
2022/09/13 12:33:06;;;;;;;0.00;0.00;;;24.10;62.60;;;;;;4200139;28;20335;-67
2022/09/13 12:35:59;;;;;;;0.00;0.00;;;24.10;62.90;;;;;;4203638;28;20047;-67
2022/09/13 12:39:16;;;;;;;0.00;0.00;;;24.10;62.90;;;;;;4193493;28;20051;-67
2022/09/13 12:42:17;;;;;;;0.15;0.15;;;24.10;63.30;;;;;;4190257;28;20071;-67
2022/09/13 12:45:12;;;;;;;0.00;0.00;;;24.20;63.40;;;;;;4177096;28;20056;-66
2022/09/13 12:48:13;;;;;;;0.00;0.00;;;24.20;62.70;;;;;;4175607;28;20075;-67
2022/09/13 12:51:11;;;;;;;0.00;0.00;;;24.20;63.10;;;;;;4175618;28;20056;-67
2022/09/13 12:54:35;;;;;;;0.05;0.05;;;24.20;62.70;;;;;;4166257;28;20051;-66
2022/09/13 12:57:27;;;;;;;0.00;0.00;;;24.20;63.10;;;;;;4173314;28;20493;-67
2022/09/13 13:00:18;;;;;;;0.10;0.10;;;24.10;62.80;;;;;;4193134;28;20191;-66
2022/09/13 13:03:10;;;;;;;;;;;24.20;62.30;;;;;;4180790;28;20063;-67
2022/09/13 13:05:57;;;;;;;0.00;0.00;;;24.10;61.60;;;;;;4173370;28;19952;-68
2022/09/13 13:08:47;;;;;;;0.00;0.00;;;24.10;60.90;;;;;;4176039;28;20074;-68
2022/09/13 13:11:30;;;;;;;0.00;0.00;;;24.10;62.00;;;;;;4177109;28;20064;-67
2022/09/13 13:14:30;;;;;;;0.00;0.00;;;24.10;61.70;;;;;;4192116;28;20051;-67
2022/09/13 13:17:40;;;;;;;0.00;0.00;;;24.10;61.70;;;;;;4192545;28;20133;-68
2022/09/13 13:20:45;;;;;;;0.00;0.00;;;24.10;62.50;;;;;;4192775;28;20058;-69
2022/09/13 13:23:28;;;;;;;0.00;0.00;;;24.10;62.40;;;;;;4159677;28;20411;-68
2022/09/13 13:26:33;;;;;;;0.00;0.00;;;24.10;63.00;;;;;;4165037;28;20223;-67
2022/09/13 13:29:16;;;;;;;0.00;0.00;;;24.10;62.20;;;;;;4176419;28;20056;-68
2022/09/13 13:32:12;;;;;;;0.00;0.00;;;24.10;62.50;;;;;;4179543;28;20051;-67
2022/09/13 13:34:54;;;;;;;0.00;0.00;;;24.10;63.10;;;;;;4192595;28;20051;-67
2022/09/13 13:37:36;;;;;;;0.15;0.15;;;24.10;62.90;;;;;;4192746;28;20067;-67
2022/09/13 13:40:24;;;;;;;0.00;0.00;;;24.10;62.80;;;;;;4191688;28;20056;-67
2022/09/13 13:43:32;;;;;;;0.00;0.00;;;24.10;63.20;;;;;;4178564;28;20052;-67
2022/09/13 13:46:30;;;;;;;0.00;0.00;;;24.10;62.50;;;;;;4175712;28;20079;-67
2022/09/13 13:49:44;;;;;;;0.00;0.00;;;24.10;62.70;;;;;;4173874;28;20450;-63
2022/09/13 13:52:36;;;;;;;0.00;0.00;;;24.20;62.90;;;;;;4166962;28;20071;-67
2022/09/13 13:55:45;;;;;;;0.00;0.00;;;24.10;62.70;;;;;;4183152;28;20064;-64
2022/09/13 13:58:37;;;;;;;0.28;0.28;;;24.10;61.90;;;;;;4175018;28;20114;-63
2022/09/13 14:01:23;;;;;;;0.00;0.00;;;24.20;62.80;;;;;;4159139;28;20515;-63
2022/09/13 14:04:34;;;;;;;0.00;0.00;;;24.10;63.50;;;;;;4168260;28;20053;-63
2022/09/13 14:07:30;;;;;;;0.10;0.10;;;24.20;62.20;;;;;;4150127;28;20053;-63
2022/09/13 14:10:19;;;;;;;0.00;0.00;;;24.20;63.30;;;;;;4141264;28;20295;-63
2022/09/13 14:13:39;;;;;;;0.32;0.32;;;24.20;62.70;;;;;;4140928;28;20057;-63
2022/09/13 14:16:44;;;;;;;0.00;0.00;;;24.20;60.90;;;;;;4118214;28;20143;-64
2022/09/13 14:19:27;;;;;;;0.00;0.00;;;24.20;61.30;;;;;;4140716;28;20053;-63
2022/09/13 14:22:15;;;;;;;0.75;0.47;;;24.20;62.20;;;;;;4138877;28;20056;-63
2022/09/13 14:24:58;;;;;;;0.00;0.00;;;24.20;62.00;;;;;;4146311;28;20388;-63
2022/09/13 14:27:42;;;;;;;0.00;0.00;;;24.20;61.90;;;;;;4177373;28;20117;-68
2022/09/13 14:30:28;;;;;;;0.00;0.00;;;24.20;61.30;;;;;;4191292;28;20055;-62
2022/09/13 14:33:24;;;;;;;0.00;0.00;;;24.20;62.80;;;;;;4190755;28;20047;-62
2022/09/13 14:36:18;;;;;;;0.00;0.00;;;24.20;62.70;;;;;;4190494;28;20079;-62